Time;durP1;ratioP1;P1;durP2;ratioP2;P2;SDS_P1;SDS_P2;PMS_P1;PMS_P2;Temp;Humidity;BMP_temperature;BMP_pressure;BME280_temperature;BME280_humidity;BME280_pressure;Samples;Min_cycle;Max_cycle;Signal;HPM_P1;HPM_P2
2023/09/03 00:00:24;;;;;;;9.63;5.97;;;;;;;-145.18;100.00;46642.81;5032140;28;20041;-62
2023/09/03 00:02:49;;;;;;;7.00;5.40;;;;;;;-145.18;100.00;46646.72;5026446;28;20513;-63
2023/09/03 00:05:14;;;;;;;11.10;6.53;;;;;;;-145.18;100.00;46644.78;5026948;28;20079;-62
2023/09/03 00:07:40;;;;;;;9.07;5.40;;;;;;;-145.18;100.00;46646.72;5027045;28;20065;-63
2023/09/03 00:10:06;;;;;;;9.13;5.93;;;;;;;-145.18;100.00;46644.78;5026656;28;20104;-63
2023/09/03 00:12:31;;;;;;;10.63;5.73;;;;;;;-145.18;100.00;46646.72;5025339;28;20104;-63
2023/09/03 00:14:57;;;;;;;8.50;6.30;;;;;;;-145.18;100.00;46648.69;5032869;28;20029;-62
2023/09/03 00:17:22;;;;;;;7.13;5.77;;;;;;;-145.18;100.00;46644.78;5028175;28;20085;-63
2023/09/03 00:19:47;;;;;;;9.00;6.57;;;;;;;-145.18;100.00;46650.63;5024858;28;20044;-63
2023/09/03 00:22:13;;;;;;;8.77;5.60;;;;;;;-145.18;100.00;46644.78;5020207;28;20065;-62
2023/09/03 00:24:38;;;;;;;7.13;5.80;;;;;;;-145.18;100.00;46644.78;5026737;28;20029;-63
2023/09/03 00:27:04;;;;;;;10.90;6.23;;;;;;;-145.18;100.00;46640.88;5027980;28;20604;-63
2023/09/03 00:29:29;;;;;;;9.30;6.03;;;;;;;-145.18;100.00;46642.81;5026241;28;20036;-62
2023/09/03 00:31:55;;;;;;;8.67;5.60;;;;;;;-145.18;100.00;46644.78;5021410;28;20084;-63
2023/09/03 00:34:20;;;;;;;10.60;6.00;;;;;;;-145.18;100.00;46640.88;5029018;28;20030;-63
2023/09/03 00:36:46;;;;;;;11.77;6.00;;;;;;;-145.18;100.00;46644.78;5023388;28;20036;-62
2023/09/03 00:39:12;;;;;;;9.50;6.23;;;;;;;-145.18;100.00;46648.69;5022325;28;20381;-62
2023/09/03 00:41:37;;;;;;;8.03;6.27;;;;;;;-145.18;100.00;46642.81;5025697;28;20433;-62
2023/09/03 00:44:03;;;;;;;9.90;6.03;;;;;;;-145.18;100.00;46640.88;5017602;28;20033;-62
2023/09/03 00:46:29;;;;;;;10.97;6.83;;;;;;;-145.18;100.00;46642.81;5016820;28;20036;-62
2023/09/03 00:48:55;;;;;;;11.10;6.83;;;;;;;-145.18;100.00;46646.72;5030175;28;20383;-62
2023/09/03 00:51:21;;;;;;;8.87;6.43;;;;;;;-145.18;100.00;46640.88;5021271;28;20025;-62
2023/09/03 00:53:51;;;;;;;10.23;6.63;;;;;;;-145.18;100.00;46644.78;5017037;28;20053;-62
2023/09/03 00:56:16;;;;;;;11.60;6.87;;;;;;;-145.18;100.00;46642.81;5023297;28;20030;-62
2023/09/03 00:58:43;;;;;;;12.13;6.53;;;;;;;-145.18;100.00;46640.88;5018975;28;20032;-62
2023/09/03 01:01:09;;;;;;;11.07;6.83;;;;;;;-145.18;100.00;46638.91;5016355;28;20036;-62
2023/09/03 01:03:35;;;;;;;9.13;6.57;;;;;;;-145.18;100.00;46660.41;5017191;28;20025;-62
2023/09/03 01:06:02;;;;;;;9.87;7.10;;;;;;;-145.18;100.00;46640.88;5013552;28;20030;-62
2023/09/03 01:08:28;;;;;;;8.63;6.87;;;;;;;-145.18;100.00;46636.94;5031796;28;20033;-62
2023/09/03 01:10:53;;;;;;;9.80;6.27;;;;;;;-145.18;100.00;46638.91;5020212;28;20033;-63
2023/09/03 01:13:26;;;;;;;9.73;6.70;;;;;;;-145.18;100.00;46640.88;5027377;28;20029;-62
2023/09/03 01:15:54;;;;;;;8.87;6.23;;;;;;;-145.18;100.00;46640.88;5025874;28;20056;-63
2023/09/03 01:18:23;;;;;;;9.33;6.27;;;;;;;-145.18;100.00;46640.88;5030430;28;20029;-63
2023/09/03 01:21:39;;;;;;;10.33;6.43;;;;;;;-145.18;100.00;46636.94;5022943;28;20030;-63
2023/09/03 01:24:13;;;;;;;8.03;6.10;;;;;;;-145.18;100.00;46642.81;5020631;28;20045;-63
2023/09/03 01:27:16;;;;;;;8.00;6.50;;;;;;;-145.18;100.00;46640.88;5030586;28;20037;-63
2023/09/03 01:29:43;;;;;;;9.60;5.97;;;;;;;-145.18;100.00;46640.88;5027635;28;20021;-63
2023/09/03 01:32:10;;;;;;;12.80;6.07;;;;;;;-145.18;100.00;46636.94;5031920;28;20021;-63
2023/09/03 01:34:36;;;;;;;6.77;5.67;;;;;;;-145.18;100.00;46642.81;5027464;28;20030;-62
2023/09/03 01:37:03;;;;;;;11.13;6.00;;;;;;;-145.18;100.00;46644.78;5019724;28;20416;-63
2023/09/03 01:39:29;;;;;;;11.03;6.07;;;;;;;-145.18;100.00;46644.78;5028866;28;20033;-63
2023/09/03 01:41:54;;;;;;;9.77;6.63;;;;;;;-145.18;100.00;46640.88;5029914;28;20060;-63
2023/09/03 01:44:20;;;;;;;9.00;6.80;;;;;;;-145.18;100.00;46642.81;5029340;28;20129;-63
2023/09/03 01:46:47;;;;;;;10.13;6.70;;;;;;;-145.18;100.00;46644.78;5028419;28;20049;-63
2023/09/03 01:49:28;;;;;;;8.73;6.23;;;;;;;-145.18;100.00;46644.78;5031956;28;20036;-62
2023/09/03 01:52:13;;;;;;;9.93;6.53;;;;;;;-145.18;100.00;46642.81;5026994;28;20017;-63
2023/09/03 01:54:40;;;;;;;8.43;6.80;;;;;;;-145.18;100.00;46638.91;5027923;28;20025;-62
2023/09/03 01:57:20;;;;;;;11.87;7.40;;;;;;;-145.18;100.00;46638.91;5016461;28;20037;-63
2023/09/03 01:59:51;;;;;;;11.53;7.30;;;;;;;-145.18;100.00;46640.88;5016542;28;20026;-63
2023/09/03 02:02:18;;;;;;;10.20;7.17;;;;;;;-145.18;100.00;46642.81;5025218;28;20098;-63
2023/09/03 02:04:43;;;;;;;12.90;7.47;;;;;;;-145.18;100.00;46636.94;5026675;28;20029;-68
2023/09/03 02:07:09;;;;;;;9.47;7.00;;;;;;;-145.18;100.00;46638.91;5016947;28;20032;-68
2023/09/03 02:09:35;;;;;;;9.40;6.63;;;;;;;-145.18;100.00;46635.00;5011519;28;20091;-69
2023/09/03 02:12:01;;;;;;;9.53;6.73;;;;;;;-145.18;100.00;46636.94;5012644;28;20136;-69
2023/09/03 02:14:27;;;;;;;10.27;6.93;;;;;;;-145.18;100.00;46638.91;5012789;28;20029;-69
2023/09/03 02:16:53;;;;;;;10.10;6.97;;;;;;;-145.18;100.00;46636.94;5024695;28;20036;-68
2023/09/03 02:19:18;;;;;;;9.90;6.63;;;;;;;-145.18;100.00;46635.00;5030494;28;20025;-68
2023/09/03 02:21:44;;;;;;;11.77;7.63;;;;;;;-145.18;100.00;46635.00;5031274;28;20401;-69
2023/09/03 02:24:09;;;;;;;9.00;7.10;;;;;;;-145.18;100.00;46636.94;5016740;28;20109;-68
2023/09/03 02:26:42;;;;;;;12.07;7.47;;;;;;;-145.18;100.00;46636.94;5019761;28;20496;-68
2023/09/03 02:29:08;;;;;;;13.70;8.00;;;;;;;-145.18;100.00;46638.91;5024825;28;20024;-69
2023/09/03 02:31:34;;;;;;;10.07;6.97;;;;;;;-145.18;100.00;46635.00;5020236;28;20018;-68
2023/09/03 02:33:59;;;;;;;9.50;6.53;;;;;;;-145.18;100.00;46633.06;5016215;28;20099;-68
2023/09/03 02:36:24;;;;;;;13.37;7.90;;;;;;;-145.18;100.00;46636.94;5028190;28;20021;-69
2023/09/03 02:39:00;;;;;;;13.10;7.47;;;;;;;-145.18;100.00;46638.91;5018858;28;20051;-68
2023/09/03 02:41:26;;;;;;;10.18;7.85;;;;;;;-145.18;100.00;46636.94;5020487;28;20113;-69
2023/09/03 02:43:51;;;;;;;14.63;6.80;;;;;;;-145.18;100.00;46635.00;5016287;28;20072;-68
2023/09/03 02:46:17;;;;;;;8.40;6.37;;;;;;;-145.18;100.00;46635.00;5018696;28;20033;-68
2023/09/03 02:48:42;;;;;;;8.87;6.40;;;;;;;-145.18;100.00;46635.00;5015144;28;20036;-69
2023/09/03 02:51:08;;;;;;;10.93;6.93;;;;;;;-145.18;100.00;46638.91;5027974;28;20366;-68
2023/09/03 02:53:33;;;;;;;8.13;5.97;;;;;;;-145.18;100.00;46640.88;5023347;28;20029;-68
2023/09/03 02:55:58;;;;;;;7.47;5.60;;;;;;;-145.18;100.00;46644.78;5019092;28;20442;-68
2023/09/03 02:58:24;;;;;;;9.93;6.63;;;;;;;-145.18;100.00;46638.91;5019179;28;20084;-68
2023/09/03 03:00:50;;;;;;;10.50;7.00;;;;;;;-145.18;100.00;46640.88;5020353;28;20475;-68
2023/09/03 03:03:15;;;;;;;9.63;6.90;;;;;;;-145.18;100.00;46640.88;5016043;28;20113;-69
2023/09/03 03:05:41;;;;;;;7.93;5.67;;;;;;;-145.18;100.00;46642.81;5021943;28;20030;-69
2023/09/03 03:08:08;;;;;;;14.10;6.97;;;;;;;-145.18;100.00;46640.88;5026115;28;20377;-68
2023/09/03 03:10:33;;;;;;;9.93;6.53;;;;;;;-145.18;100.00;46636.94;5024750;28;20030;-68
2023/09/03 03:12:59;;;;;;;14.47;7.13;;;;;;;-145.18;100.00;46638.91;5030623;28;20053;-68
2023/09/03 03:15:24;;;;;;;12.57;7.00;;;;;;;-145.18;100.00;46638.91;5028043;28;20037;-68
2023/09/03 03:17:49;;;;;;;11.00;7.47;;;;;;;-145.18;100.00;46638.91;5035796;28;20029;-68
2023/09/03 03:20:15;;;;;;;10.90;7.27;;;;;;;-145.18;100.00;46638.91;5032014;28;20033;-68
2023/09/03 03:22:40;;;;;;;11.53;6.20;;;;;;;-145.18;100.00;46644.78;5030958;28;20041;-68
2023/09/03 03:25:06;;;;;;;13.97;7.77;;;;;;;-145.18;100.00;46642.81;5032265;28;20025;-68
2023/09/03 03:27:31;;;;;;;10.57;6.80;;;;;;;-145.18;100.00;46638.91;5029778;28;20091;-68
2023/09/03 03:29:57;;;;;;;10.33;6.33;;;;;;;-145.18;100.00;46638.91;5029333;28;20022;-68
2023/09/03 03:32:22;;;;;;;11.90;7.37;;;;;;;-145.18;100.00;46636.94;5027686;28;20060;-68
2023/09/03 03:34:48;;;;;;;12.13;7.97;;;;;;;-145.18;100.00;46638.91;5028668;28;20038;-68
2023/09/03 03:37:13;;;;;;;11.07;7.80;;;;;;;-145.18;100.00;46635.00;5031153;28;20112;-68
2023/09/03 03:39:38;;;;;;;13.83;7.43;;;;;;;-145.18;100.00;46636.94;5022923;28;20497;-68
2023/09/03 03:42:04;;;;;;;11.80;7.93;;;;;;;-145.18;100.00;46636.94;5030487;28;20056;-68
2023/09/03 03:44:31;;;;;;;15.03;8.43;;;;;;;-145.18;100.00;46633.06;5024934;28;20037;-68
2023/09/03 03:46:56;;;;;;;11.47;8.13;;;;;;;-145.18;100.00;46660.41;5037846;28;20080;-68
2023/09/03 03:49:21;;;;;;;12.23;8.40;;;;;;;-145.18;100.00;46633.06;5033019;28;20489;-68
2023/09/03 03:51:47;;;;;;;12.77;8.90;;;;;;;-145.18;100.00;46635.00;5033618;28;20026;-68
2023/09/03 03:54:12;;;;;;;16.07;8.67;;;;;;;-145.18;100.00;46633.06;5033702;28;20423;-68
2023/09/03 03:56:37;;;;;;;13.13;9.07;;;;;;;-145.18;100.00;46660.41;5032116;28;20070;-68
2023/09/03 03:59:03;;;;;;;17.47;8.33;;;;;;;-145.18;100.00;46660.41;5020866;28;20112;-68
2023/09/03 04:01:29;;;;;;;14.40;8.57;;;;;;;-145.18;100.00;46631.09;5009820;28;20072;-68
2023/09/03 04:03:55;;;;;;;12.47;7.90;;;;;;;-145.18;100.00;46631.09;5030010;28;20060;-69
2023/09/03 04:06:20;;;;;;;14.47;9.43;;;;;;;-145.18;100.00;46631.09;5030578;28;20489;-68
2023/09/03 04:08:46;;;;;;;13.40;7.53;;;;;;;-145.18;100.00;46631.09;5032798;28;20045;-68
2023/09/03 04:11:14;;;;;;;11.77;7.47;;;;;;;-145.18;100.00;46660.41;5030383;28;20057;-68
2023/09/03 04:13:40;;;;;;;12.00;7.90;;;;;;;-145.18;100.00;46631.09;5026961;28;20374;-68
2023/09/03 04:16:09;;;;;;;12.50;7.80;;;;;;;-145.18;100.00;46660.41;5025550;28;20048;-68
2023/09/03 04:18:36;;;;;;;9.47;6.33;;;;;;;-145.18;100.00;46638.91;5031809;28;20059;-68
2023/09/03 04:21:01;;;;;;;10.70;7.57;;;;;;;-145.18;100.00;46631.09;5034591;28;20422;-68
2023/09/03 04:23:27;;;;;;;12.63;8.60;;;;;;;-145.18;100.00;46633.06;5026974;28;20048;-68
2023/09/03 04:25:53;;;;;;;12.67;8.53;;;;;;;-145.18;100.00;46631.09;5023826;28;20112;-69
2023/09/03 04:28:19;;;;;;;13.97;8.67;;;;;;;-145.18;100.00;46660.41;5018918;28;20052;-69
2023/09/03 04:30:45;;;;;;;13.47;7.57;;;;;;;-145.18;100.00;46631.09;5027596;28;20029;-68
2023/09/03 04:33:10;;;;;;;15.30;8.73;;;;;;;-145.18;100.00;46660.41;5027752;28;20036;-68
2023/09/03 04:35:37;;;;;;;11.43;8.03;;;;;;;-145.18;100.00;46633.06;5024678;28;20036;-68
2023/09/03 04:38:03;;;;;;;12.30;7.93;;;;;;;-145.18;100.00;46660.41;5031393;28;20163;-68
2023/09/03 04:40:33;;;;;;;15.93;8.90;;;;;;;-145.18;100.00;46660.41;5033297;28;20083;-69
2023/09/03 04:42:58;;;;;;;14.80;9.00;;;;;;;-145.18;100.00;46660.41;5023586;28;20034;-69
2023/09/03 04:45:23;;;;;;;11.73;8.67;;;;;;;-145.18;100.00;46660.41;5025215;28;20036;-68
2023/09/03 04:47:49;;;;;;;15.30;9.13;;;;;;;-145.18;100.00;46660.41;5025721;28;20032;-68
2023/09/03 04:50:14;;;;;;;17.10;9.47;;;;;;;-145.18;100.00;46635.00;5031549;28;20444;-68
2023/09/03 04:52:43;;;;;;;11.23;7.33;;;;;;;-145.18;100.00;46631.09;5034026;28;20033;-68
2023/09/03 04:55:09;;;;;;;14.33;8.50;;;;;;;-145.18;100.00;46660.41;5031961;28;20037;-68
2023/09/03 04:57:34;;;;;;;13.30;8.73;;;;;;;-145.18;100.00;46660.41;5025171;28;20042;-68
2023/09/03 05:00:00;;;;;;;12.93;8.67;;;;;;;-145.18;100.00;46633.06;5021272;28;20449;-68
2023/09/03 05:02:25;;;;;;;10.37;7.03;;;;;;;-145.18;100.00;46660.41;5013407;28;20042;-68
2023/09/03 05:04:50;;;;;;;11.33;7.27;;;;;;;-145.18;100.00;46660.41;5014850;28;20069;-68
2023/09/03 05:07:16;;;;;;;14.03;7.20;;;;;;;-145.18;100.00;46633.06;5027665;28;20034;-69
2023/09/03 05:09:41;;;;;;;12.10;8.10;;;;;;;-145.18;100.00;46660.41;5016896;28;20054;-68
2023/09/03 05:12:07;;;;;;;13.00;8.03;;;;;;;-145.18;100.00;46660.41;5016480;28;20082;-68
2023/09/03 05:14:32;;;;;;;14.53;8.80;;;;;;;-145.18;100.00;46635.00;5017551;28;20033;-68
2023/09/03 05:16:57;;;;;;;14.70;9.60;;;;;;;-145.18;100.00;46660.41;5027863;28;20069;-69
2023/09/03 05:19:23;;;;;;;12.43;9.00;;;;;;;-145.18;100.00;46629.13;5010683;28;20085;-69
2023/09/03 05:21:48;;;;;;;12.77;8.47;;;;;;;-145.18;100.00;46631.09;5018112;28;20380;-70
2023/09/03 05:24:13;;;;;;;13.40;8.43;;;;;;;-145.18;100.00;46660.41;5027498;28;20079;-69
2023/09/03 05:26:39;;;;;;;10.40;8.10;;;;;;;-145.18;100.00;46629.13;5021654;28;20064;-69
2023/09/03 05:29:04;;;;;;;14.27;7.73;;;;;;;-145.18;100.00;46631.09;5025493;28;20394;-69
2023/09/03 05:31:30;;;;;;;13.97;8.30;;;;;;;-145.18;100.00;46633.06;5031831;28;20058;-69
2023/09/03 05:34:00;;;;;;;14.23;8.30;;;;;;;-145.18;100.00;46660.41;5023956;28;20048;-62
2023/09/03 05:36:25;;;;;;;12.10;7.90;;;;;;;-145.18;100.00;46627.19;5033439;28;20065;-63
2023/09/03 05:38:51;;;;;;;13.97;7.90;;;;;;;-145.18;100.00;46627.19;5030819;28;20084;-60
2023/09/03 05:41:16;;;;;;;11.40;6.73;;;;;;;-145.18;100.00;46629.13;5024144;28;20044;-63
2023/09/03 05:43:41;;;;;;;14.60;7.07;;;;;;;-145.18;100.00;46629.13;5022434;28;20029;-62
2023/09/03 05:46:07;;;;;;;11.57;7.27;;;;;;;-145.18;100.00;46629.13;5032469;28;20467;-63
2023/09/03 05:48:32;;;;;;;11.17;7.00;;;;;;;-145.18;100.00;46629.13;5028351;28;20025;-62
2023/09/03 05:51:03;;;;;;;12.80;7.47;;;;;;;-145.18;100.00;46629.13;5026765;28;20037;-62
2023/09/03 05:53:29;;;;;;;13.57;8.10;;;;;;;-145.18;100.00;46625.22;5021537;28;20112;-63
2023/09/03 05:56:03;;;;;;;14.33;8.40;;;;;;;-145.18;100.00;46629.13;5027422;28;20124;-62
2023/09/03 05:58:28;;;;;;;14.30;8.40;;;;;;;-145.18;100.00;46625.22;5029615;28;20051;-63
2023/09/03 06:00:54;;;;;;;15.67;8.77;;;;;;;-145.18;100.00;46629.13;5022932;28;20804;-63
2023/09/03 06:03:19;;;;;;;14.40;8.73;;;;;;;-145.18;100.00;46627.19;5029832;28;20040;-62
2023/09/03 06:05:45;;;;;;;13.13;7.87;;;;;;;-145.18;100.00;46636.94;5020230;28;20042;-63
2023/09/03 06:08:10;;;;;;;14.37;9.30;;;;;;;-145.18;100.00;46635.00;5025543;28;20033;-63
2023/09/03 06:10:37;;;;;;;12.83;9.20;;;;;;;-145.18;100.00;46625.22;5020414;28;20028;-62
2023/09/03 06:13:03;;;;;;;13.27;8.60;;;;;;;-145.18;100.00;46635.00;5023984;28;20045;-62
2023/09/03 06:15:28;;;;;;;15.00;9.90;;;;;;;-145.18;100.00;46633.06;5021759;28;20044;-63
2023/09/03 06:17:54;;;;;;;13.33;9.77;;;;;;;-145.18;100.00;46625.22;5018571;28;20437;-63
2023/09/03 06:20:19;;;;;;;16.90;8.87;;;;;;;-145.18;100.00;46629.13;5029780;28;20079;-62
2023/09/03 06:22:45;;;;;;;14.87;9.83;;;;;;;-145.18;100.00;46629.13;5011065;28;20137;-63
2023/09/03 06:25:10;;;;;;;15.43;10.37;;;;;;;-145.18;100.00;46629.13;5028389;28;20033;-62
2023/09/03 06:27:35;;;;;;;17.90;10.20;;;;;;;-145.18;100.00;46625.22;5029577;28;20474;-63
2023/09/03 06:30:01;;;;;;;16.33;10.30;;;;;;;-145.18;100.00;46623.28;5023878;28;20133;-62
2023/09/03 06:32:28;;;;;;;15.53;10.13;;;;;;;-145.18;100.00;46631.09;5027109;28;20041;-63
2023/09/03 06:34:53;;;;;;;20.90;12.00;;;;;;;-145.18;100.00;46627.19;5027602;28;20559;-62
2023/09/03 06:37:19;;;;;;;21.57;12.07;;;;;;;-145.18;100.00;46627.19;5032118;28;20112;-63
2023/09/03 06:39:44;;;;;;;18.97;11.97;;;;;;;-145.18;100.00;46623.28;5027182;28;20033;-62
2023/09/03 06:42:09;;;;;;;22.67;13.43;;;;;;;-145.18;100.00;46627.19;5028477;28;20477;-62
2023/09/03 06:44:35;;;;;;;23.90;12.37;;;;;;;-145.18;100.00;46623.28;5038834;28;20061;-62
2023/09/03 06:47:00;;;;;;;23.03;12.53;;;;;;;-145.18;100.00;46623.28;5030330;28;20082;-62
2023/09/03 06:49:26;;;;;;;29.03;13.67;;;;;;;-145.18;100.00;46625.22;5026631;28;20494;-62
2023/09/03 06:51:52;;;;;;;19.10;12.17;;;;;;;-145.18;100.00;46623.28;5028191;28;20037;-62
2023/09/03 06:54:17;;;;;;;23.10;13.03;;;;;;;-145.18;100.00;46621.31;5023761;28;20397;-63
2023/09/03 06:56:42;;;;;;;19.13;12.90;;;;;;;-145.18;100.00;46623.28;5013844;28;20038;-62
2023/09/03 06:59:08;;;;;;;22.67;14.27;;;;;;;-145.18;100.00;46625.22;5024922;28;20041;-62
2023/09/03 07:01:33;;;;;;;21.03;12.97;;;;;;;-145.18;100.00;46617.41;5012228;28;20026;-62
2023/09/03 07:03:58;;;;;;;22.90;13.70;;;;;;;-145.18;100.00;46623.28;5022532;28;20478;-62
2023/09/03 07:06:24;;;;;;;18.57;12.37;;;;;;;-145.18;100.00;46623.28;5013672;28;20054;-63
2023/09/03 07:08:53;;;;;;;21.67;13.27;;;;;;;-145.18;100.00;46621.31;5019682;28;20037;-63
2023/09/03 07:11:19;;;;;;;24.90;13.70;;;;;;;-145.18;100.00;46621.31;5013466;28;20041;-63
2023/09/03 07:13:44;;;;;;;22.80;13.63;;;;;;;-145.18;100.00;46627.19;5016262;28;20290;-63
2023/09/03 07:16:09;;;;;;;19.87;12.47;;;;;;;-145.18;100.00;46627.19;5017614;28;20018;-62
2023/09/03 07:18:35;;;;;;;18.00;12.17;;;;;;;-145.18;100.00;46621.31;5016439;28;20044;-62
2023/09/03 07:21:05;;;;;;;17.03;12.00;;;;;;;-145.18;100.00;46627.19;5017635;28;20121;-63
2023/09/03 07:23:31;;;;;;;17.60;12.10;;;;;;;-145.18;100.00;46631.09;5028804;28;20033;-63
2023/09/03 07:26:08;;;;;;;17.80;12.83;;;;;;;-145.18;100.00;46625.22;5022874;28;20068;-63
2023/09/03 07:28:33;;;;;;;19.53;13.30;;;;;;;-145.18;100.00;46631.09;5018535;28;20076;-62
2023/09/03 07:30:59;;;;;;;18.03;12.87;;;;;;;-145.18;100.00;46633.06;5025315;28;20041;-62
2023/09/03 07:33:25;;;;;;;17.60;12.77;;;;;;;-145.18;100.00;46636.94;5022981;28;20451;-63
2023/09/03 07:35:50;;;;;;;16.93;11.87;;;;;;;-145.18;100.00;46635.00;5029982;28;20037;-62
2023/09/03 07:38:16;;;;;;;19.00;12.13;;;;;;;-145.18;100.00;46640.88;5018287;28;20025;-62
2023/09/03 07:40:41;;;;;;;17.53;12.93;;;;;;;-145.18;100.00;46640.88;5018619;28;20038;-63
2023/09/03 07:43:08;;;;;;;18.87;12.67;;;;;;;-145.18;100.00;46633.06;5023533;28;20029;-63
2023/09/03 07:45:33;;;;;;;16.10;11.73;;;;;;;-145.18;100.00;46638.91;5022878;28;20025;-62
2023/09/03 07:47:58;;;;;;;18.53;12.10;;;;;;;-145.18;100.00;46642.81;5020246;28;20029;-63
2023/09/03 07:50:24;;;;;;;16.83;11.80;;;;;;;-145.18;100.00;46646.72;5028826;28;20026;-63
2023/09/03 07:52:49;;;;;;;20.20;12.83;;;;;;;-145.18;100.00;46644.78;5033653;28;20043;-63
2023/09/03 07:55:15;;;;;;;22.23;13.30;;;;;;;-145.18;100.00;46648.69;5022910;28;20062;-69
2023/09/03 07:57:41;;;;;;;20.03;13.27;;;;;;;-145.18;100.00;46640.88;5022907;28;20026;-69
2023/09/03 08:00:07;;;;;;;19.90;12.70;;;;;;;-145.18;100.00;46642.81;5016918;28;20034;-69
2023/09/03 08:02:32;;;;;;;16.83;12.07;;;;;;;-145.18;100.00;46644.78;5024054;28;20441;-69
2023/09/03 08:04:57;;;;;;;19.87;12.60;;;;;;;-145.18;100.00;46652.59;5013642;28;20034;-70
2023/09/03 08:07:24;;;;;;;20.73;12.47;;;;;;;-145.18;100.00;46648.69;5019287;28;20033;-69
2023/09/03 08:09:50;;;;;;;20.00;12.87;;;;;;;-145.18;100.00;46648.69;5019563;28;20120;-69
2023/09/03 08:12:15;;;;;;;20.17;12.70;;;;;;;-145.18;100.00;46648.69;5025485;28;20128;-69
2023/09/03 08:14:42;;;;;;;19.97;11.97;;;;;;;-145.18;100.00;46650.63;5034102;28;20523;-69
2023/09/03 08:17:07;;;;;;;17.77;12.30;;;;;;;-145.18;100.00;46652.59;5026952;28;20063;-69
2023/09/03 08:19:34;;;;;;;18.50;12.33;;;;;;;-145.18;100.00;46656.50;5041593;28;20095;-69
2023/09/03 08:22:00;;;;;;;15.50;11.10;;;;;;;-145.18;100.00;46664.31;5021521;28;20068;-69
2023/09/03 08:24:27;;;;;;;16.13;11.47;;;;;;;-145.18;100.00;46658.44;5022850;28;20498;-69
2023/09/03 08:26:52;;;;;;;16.80;11.73;;;;;;;-145.18;100.00;46660.41;5026411;28;20033;-67
2023/09/03 08:29:17;;;;;;;19.63;11.73;;;;;;;-145.18;100.00;46670.16;5022349;28;20128;-69
2023/09/03 08:31:43;;;;;;;17.10;11.90;;;;;;;-145.18;100.00;46668.22;5031700;28;20381;-69
2023/09/03 08:34:09;;;;;;;17.93;10.93;;;;;;;-145.18;100.00;46668.22;5033282;28;20017;-69
2023/09/03 08:36:34;;;;;;;16.37;11.20;;;;;;;-145.18;100.00;46668.22;5031427;28;20027;-69
2023/09/03 08:39:01;;;;;;;15.87;10.83;;;;;;;-145.18;100.00;46668.22;5026943;28;20033;-69
2023/09/03 08:41:27;;;;;;;18.27;11.57;;;;;;;-145.18;100.00;46672.13;5030582;28;20064;-69
2023/09/03 08:44:02;;;;;;;16.87;10.80;;;;;;;-145.18;100.00;46672.13;5032077;28;20473;-69
2023/09/03 08:46:32;;;;;;;15.03;11.63;;;;;;;-145.18;100.00;46670.16;5027991;28;20401;-69
2023/09/03 08:48:59;;;;;;;15.77;10.77;;;;;;;-145.18;100.00;46674.06;5020568;28;20465;-69
2023/09/03 08:51:26;;;;;;;17.00;11.43;;;;;;;-145.18;100.00;46676.03;5031421;28;20021;-69
2023/09/03 08:53:52;;;;;;;17.80;11.30;;;;;;;-145.18;100.00;46674.06;5030541;28;20106;-69
2023/09/03 08:56:18;;;;;;;15.60;11.50;;;;;;;-145.18;100.00;46676.03;5023302;28;20059;-69
2023/09/03 08:58:43;;;;;;;15.63;10.90;;;;;;;-145.18;100.00;46676.03;5023665;28;20493;-69
2023/09/03 09:01:12;;;;;;;16.37;10.93;;;;;;;-145.18;100.00;46672.13;5015741;28;20117;-67
2023/09/03 09:03:38;;;;;;;16.20;11.53;;;;;;;-145.18;100.00;46679.94;5021261;28;20028;-69
2023/09/03 09:06:07;;;;;;;14.80;11.30;;;;;;;-145.18;100.00;46674.06;5027790;28;20245;-69
2023/09/03 09:08:33;;;;;;;15.40;11.33;;;;;;;-145.18;100.00;46676.03;5024431;28;20021;-70
2023/09/03 09:11:04;;;;;;;16.47;11.40;;;;;;;-145.18;100.00;46679.94;5019452;28;20405;-69
2023/09/03 09:13:34;;;;;;;16.90;11.10;;;;;;;-145.18;100.00;46681.88;5020444;28;20036;-68
2023/09/03 09:16:00;;;;;;;12.77;10.07;;;;;;;-145.18;100.00;46687.75;5025628;28;20030;-69
2023/09/03 09:18:25;;;;;;;12.93;9.87;;;;;;;-145.18;100.00;46687.75;5023148;28;20057;-69
2023/09/03 09:20:55;;;;;;;13.53;9.90;;;;;;;-145.18;100.00;46689.69;5021219;28;20116;-68
2023/09/03 09:23:24;;;;;;;15.93;10.17;;;;;;;-145.18;100.00;46687.75;5027329;28;20029;-68
2023/09/03 09:25:50;;;;;;;13.53;10.37;;;;;;;-145.18;100.00;46687.75;5026813;28;20087;-68
2023/09/03 09:28:16;;;;;;;15.10;9.40;;;;;;;-145.18;100.00;46685.78;5028157;28;20041;-69
2023/09/03 09:31:02;;;;;;;11.20;8.47;;;;;;;-145.18;100.00;46687.75;5031116;28;20072;-68
2023/09/03 09:33:27;;;;;;;12.25;8.13;;;;;;;-145.18;100.00;46689.69;5028106;28;20072;-68
2023/09/03 09:35:53;;;;;;;13.13;8.53;;;;;;;-145.18;100.00;46674.06;5025557;28;20033;-69
2023/09/03 09:38:19;;;;;;;9.23;6.90;;;;;;;-145.18;100.00;46576.41;5025953;28;20029;-68
2023/09/03 09:40:44;;;;;;;11.13;7.47;;;;;;;-145.18;100.00;46576.41;5028787;28;20087;-69
2023/09/03 09:43:10;;;;;;;12.10;8.20;;;;;;;-145.18;100.00;46562.72;5025391;28;20037;-68
2023/09/03 09:45:50;;;;;;;9.07;6.30;;;;;;;-145.18;100.00;46558.81;5022840;28;20545;-67
2023/09/03 09:48:16;;;;;;;9.63;5.33;;;;;;;-145.18;100.00;46562.72;5024636;28;20068;-68
2023/09/03 09:50:47;;;;;;;8.47;6.80;;;;;;;-145.18;100.00;46564.69;5026510;28;20371;-69
2023/09/03 09:53:20;;;;;;;10.07;6.60;;;;;;;-145.18;100.00;46570.53;5019388;28;20367;-68
2023/09/03 09:55:46;;;;;;;11.43;5.80;;;;;;;-145.18;100.00;46566.63;5026539;28;20111;-68
2023/09/03 09:58:12;;;;;;;10.80;6.80;;;;;;;-145.18;100.00;46566.63;5018972;28;20477;-68
2023/09/03 10:00:43;;;;;;;10.00;6.67;;;;;;;-145.18;100.00;46564.69;5019137;28;20506;-69
2023/09/03 10:03:11;;;;;;;8.77;7.57;;;;;;;-145.18;100.00;46560.78;5018316;28;20529;-68
2023/09/03 10:05:37;;;;;;;10.37;7.67;;;;;;;-145.18;100.00;46576.41;5020826;28;20405;-68
2023/09/03 10:08:03;;;;;;;7.30;6.15;;;;;;;-145.18;100.00;46560.78;5021300;28;20030;-68
2023/09/03 10:10:30;;;;;;;8.82;6.03;;;;;;;-145.18;100.00;46558.81;5025689;28;20022;-68
2023/09/03 10:12:55;;;;;;;6.20;5.30;;;;;;;-145.18;100.00;46562.72;5020828;28;20599;-69
2023/09/03 10:15:22;;;;;;;6.85;5.15;;;;;;;-145.18;100.00;46552.97;5017278;28;20056;-63
2023/09/03 10:17:51;;;;;;;11.60;6.13;;;;;;;-145.18;100.00;46549.06;5015242;28;20472;-63
2023/09/03 10:20:19;;;;;;;9.45;5.82;;;;;;;-145.18;100.00;46558.81;5022385;28;20057;-63
2023/09/03 10:22:48;;;;;;;7.55;6.05;;;;;;;-145.18;100.00;46556.88;5020907;28;20040;-63
2023/09/03 10:25:18;;;;;;;6.95;5.95;;;;;;;-145.18;100.00;46558.81;5024885;28;20025;-63
2023/09/03 10:27:50;;;;;;;9.65;5.65;;;;;;;-145.18;100.00;46554.91;5020667;28;20018;-63
2023/09/03 10:30:21;;;;;;;11.23;7.03;;;;;;;-145.18;100.00;46562.72;5013636;28;20165;-63
2023/09/03 10:32:47;;;;;;;10.00;6.07;;;;;;;-145.18;100.00;46549.06;5015403;28;20026;-63
2023/09/03 10:35:13;;;;;;;7.93;5.50;;;;;;;-145.18;100.00;46566.63;5025362;28;20037;-63
2023/09/03 10:37:40;;;;;;;8.50;6.20;;;;;;;-145.18;100.00;46562.72;5027718;28;20029;-63
2023/09/03 10:40:22;;;;;;;8.75;6.47;;;;;;;-145.18;100.00;46576.41;5014822;28;20038;-63
2023/09/03 10:42:48;;;;;;;10.88;6.80;;;;;;;-145.18;100.00;46568.59;5017486;28;20021;-63
2023/09/03 10:45:15;;;;;;;10.50;7.60;;;;;;;-145.18;100.00;46588.13;5022282;28;20022;-63
2023/09/03 10:48:02;;;;;;;10.07;6.50;;;;;;;-145.18;100.00;46545.16;5019626;28;20079;-63
2023/09/03 10:50:41;;;;;;;9.43;6.38;;;;;;;-145.18;100.00;46558.81;5014183;28;20022;-63
2023/09/03 10:53:07;;;;;;;11.02;6.95;;;;;;;-145.18;100.00;46578.34;5030645;28;20436;-63
2023/09/03 10:55:32;;;;;;;9.23;6.28;;;;;;;-145.18;100.00;46564.69;5018873;28;20046;-63
2023/09/03 10:58:25;;;;;;;8.90;5.80;;;;;;;-145.18;100.00;46560.78;5030449;28;20083;-63
2023/09/03 11:01:15;;;;;;;8.55;6.00;;;;;;;-145.18;100.00;46988.56;5028330;28;20044;-63